Aérodrome :
LOGIN :

S'inscrire | Disclaimer

   EN    FR    IT 

 










Légende :    VFR   VFR Marginal   IFR   IFR Intensif   IFR Très Intensif
Visi : 
Plafond : 
>= 8 km
>= 3000ft
5 à 8 km
1000 à 3000 ft
1500m à 5 km
500 à 1000 ft
800 à 1500m
200 à 500 ft
< 800m
< 200 ft
Symboles :   Orages  Brouillard  Fortes neiges  Fortes précipitations  Vent > 20 kt
SIGMETs :   Divers  Orages  Givrage  Turbulence  Onde Orograph.  Cendres Volcan.






- Altitude de l'aérodrome : 659 ft
- Code IATA : LGG


EBLG - Liège

DERNIER METAR :
  • 250720Z 12002KT 0150 R22L/0400N R22R/0400N R04R/0550N FZFG NSC M03/M03 Q1032 NOSIG

METARs EXPIRÉS :
  • 250650Z 04002KT 0200 R22L/0750N R22R/0450N R04R/0550D FZFG NSC M04/M04 Q1032 NOSIG
  • 250620Z 04002KT 0150 R22L/0800D R22R/0600D R04R/0800D FZFG NSC M04/M04 Q1032 NOSIG
  • 250550Z 03001KT 0150 R22L/0400U R22R/0350N R04R/0400N FZFG NSC M04/M04 Q1032 NOSIG
  • 250520Z VRB02KT 0150 R22L/0900D R22R/0450U R04R/0400N FZFG NSC M04/M04 Q1032 NOSIG
  • 250450Z 14005G18KT 090V180 0150 R22L/0900D R22R/0650U R04R/0700D FZFG NSC M03/M04 Q1032 NOSIG

TAF TAF EBLG
Valide du 25 à 06h jusqu'au 26 à 12h UTC


250506Z 2506/2612 VRB03KT 0150 FZFG OVC001
BECMG 2509/2512 3000 BR BKN003
PROB40 2518/2524 0150 FZFG BKN001
BECMG 2608/2611 6000 NSW BKN008



MET'MAP, la Météo Aéronautique d'un coup d'oeil ! - Copyright ORBIFLY Décembre 2007 - Disclaimer

ORBIFLY MET'MAP TEAM :

Programmation & Développement : Alexandra Zaïnal
Sur une idée originale de : Baudouin d'Aumeries
Soutien technique & logistique : Manuel Goepfert
Assistance : Marc-Olivier Méhu

Contact : metmap@orbifly.com




SOURCES & CREDITS :

   NOAA